ADDS METAR Data INFO
IDs: Format: Raw Decoded Include TAF

Data at: 1409 UTC 24 Feb 2018

KHKS 241353Z 16007KT 9SM FEW008 BKN012 OVC080 21/20 A3010 RMK AO2 SLP184 T02060200
KHKS 241343Z 17007KT 8SM FEW008 BKN013 BKN017 21/20 A3010 RMK AO2 T02060200
KHKS 241330Z 18006KT 8SM OVC012 21/20 A3009 RMK AO2 T02060200
KHKS 241253Z 18008KT 8SM OVC008 20/20 A3009 RMK AO2 CIG 006V011 SLP181 T02000200
KHKS 241153Z AUTO 17007KT 8SM OVC008 20/20 A3007 RMK AO2 CIG 007V011 SLP175 70071 T02000200 10206 20194 56005
KHKS 241053Z AUTO 17009KT 8SM BKN008 20/19 A3007 RMK AO2 CIG 006V011 SLP176 T02000194
KHKS 241041Z AUTO 17007KT 8SM BKN008 20/19 A3007 RMK AO2 CIG 007V011 T02000194
KHKS 241025Z AUTO 16007KT 8SM FEW008 SCT022 19/19 A3007 RMK AO2 T01940194
KHKS 240958Z AUTO 18008KT 9SM SCT008 OVC022 20/19 A3008 RMK AO2 T02000194
KHKS 240953Z AUTO 17009KT 9SM BKN008 BKN012 OVC022 20/19 A3008 RMK AO2 SLP177 T02000194
KHKS 240906Z AUTO 18007KT 9SM BKN008 20/19 A3008 RMK AO2 CIG 007V013 T02000194
KHKS 240853Z AUTO 17008KT 10SM FEW008 SCT018 19/19 A3008 RMK AO2 SLP181 T01940194 55010
KHKS 240842Z AUTO 17009KT 10SM FEW008 BKN017 20/19 A3008 RMK AO2 T02000194
KHKS 240832Z AUTO 17008KT 10SM FEW010 BKN017 20/19 A3008 RMK AO2 T02000194
KHKS 240808Z AUTO 17007KT 10SM SCT021 20/19 A3009 RMK AO2 T02000194
KHKS 240753Z AUTO 17008KT 10SM FEW009 BKN022 20/20 A3011 RMK AO2 SLP187 T02000200
KHKS 240723Z AUTO 16008KT 10SM FEW007 FEW011 OVC021 20/20 A3010 RMK AO2 T02000200
KHKS 240653Z AUTO 17009KT 10SM BKN008 OVC012 20/20 A3011 RMK AO2 CIG 006V011 SLP190 T02000200
KHKS 240553Z AUTO 16008KT 10SM OVC008 20/20 A3013 RMK AO2 CIG 006V012 SLP194 60000 T02000200 10200 20189 402500172 56012
KHKS 240542Z AUTO 16008KT 10SM BKN008 OVC012 20/20 A3013 RMK AO2 CIG 006V012 T02000200
KHKS 240518Z AUTO 15007KT 10SM SCT006 BKN012 20/20 A3013 RMK AO2 T02000200
KHKS 240453Z AUTO 15008KT 10SM FEW007 BKN060 BKN090 20/20 A3014 RMK AO2 RAB30E40 SLP197 P0000 T02000200
KHKS 240421Z AUTO 16010KT 10SM FEW009 SCT045 OVC060 20/20 A3014 RMK AO2 T02000200
KHKS 240353Z AUTO 16007KT 9SM BKN009 OVC080 20/20 A3015 RMK AO2 CIG 008V014 SLP202 T02000200
KHKS 240253Z 14007KT 8SM SCT080 OVC100 20/20 A3016 RMK AO2 SLP206 60000 T02000200 56005
KHKS 240209Z 14007KT 7SM FEW006 SCT023 OVC080 20/20 A3017 RMK AO2 T02000200
KHKS 240153Z 14006KT 8SM BKN022 BKN070 OVC090 20/20 A3017 RMK AO2 SLP208 T02000200
KHKS 240142Z 14006KT 8SM BKN023 BKN080 20/20 A3016 RMK AO2 T02000200
KHKS 240053Z 12004KT 9SM FEW047 SCT120 19/19 A3017 RMK AO2 RAE02 SLP209 P0000 T01890189
KHKS 240029Z 13003KT 10SM SCT022 BKN036 BKN046 19/19 A3017 RMK AO2 RAE02 P0000 T01940194
KHKS 240002Z 15005KT 10SM FEW012 SCT019 OVC024 19/19 A3018 RMK AO2 RAE02 P0000 T01940194
KHKS 232353Z 14005KT 2SM -RA BR FEW015 BKN025 OVC032 19/19 A3018 RMK AO2 SLP212 P0019 60071 T01940194 10244 20189 55002
KHKS 232330Z 11004KT 1 1/4SM RA BR SCT007 BKN017 OVC034 19/19 A3018 RMK AO2 P0011 T01940194
KHKS 232322Z 11003KT 1 3/4SM RA BR BKN007 OVC017 19/19 A3018 RMK AO2 P0007 T01940194
KHKS 232315Z 15003KT 3SM -RA BR BKN007 BKN012 OVC025 19/19 A3018 RMK AO2 CIG 004V010 P0005 T01940194
KHKS 232305Z 22008KT 1 1/4SM +RA BR BKN007 BKN012 OVC028 19/19 A3018 RMK AO2 P0004 T01940194
KHKS 232301Z 21004KT 2SM RA BR SCT007 BKN012 OVC024 19/19 A3018 RMK AO2 VIS 1 1/4V4 P0001 T01940194
KHKS 232253Z 10004KT 4SM -RA BR SCT010 BKN022 OVC027 19/19 A3017 RMK AO2 SLP211 P0008 T01940189
KHKS 232241Z 08006KT 5SM -RA BR SCT010 BKN024 OVC037 19/19 A3017 RMK AO2 P0007 T01940189
KHKS 232218Z 06003KT 2SM RA BR FEW006 BKN022 OVC028 19/19 A3018 RMK AO2 P0006 T01940194
KHKS 232203Z 07005KT 1 3/4SM RA BR FEW008 BKN022 OVC075 19/19 A3018 RMK AO2 P0002 T01940194
KHKS 232157Z 05004KT 2 1/2SM RA BR SCT021 BKN029 OVC065 19/19 A3018 RMK AO2 P0001 T01940189
KHKS 232153Z 06003KT 4SM -RA BR FEW023 BKN048 OVC065 19/19 A3018 RMK AO2 SLP214 P0010 T01940194
KHKS 232148Z 07004KT 6SM -RA BR FEW029 BKN048 OVC080 19/19 A3018 RMK AO2 P0009
KHKS 232124Z 04003KT 2SM RA BR FEW031 BKN060 OVC100 19/19 A3019 RMK AO2 P0005 T01940189
KHKS 232053Z 11003KT 7SM -RA SCT029 BKN095 OVC110 19/19 A3021 RMK AO2 SLP223 P0021 60034 T01940189 58021
KHKS 232046Z 00000KT 2SM -RA BR BKN033 BKN060 OVC090 19/19 A3021 RMK AO2 P0021 T01940194
KHKS 232039Z 09004KT 3/4SM +RA BR BKN031 BKN080 OVC100 19/19 A3021 RMK AO2 P0020 T01890189
KHKS 232032Z 15006KT 1 1/2SM RA BR BKN029 BKN065 OVC095 19/19 A3022 RMK AO2 P0015 T01890189
KHKS 232012Z 11005KT 3SM -RA BR FEW043 BKN060 OVC100 19/19 A3022 RMK AO2 P0007 T01940189
KHKS 232008Z 11006KT 1 1/2SM RA BR FEW006 BKN055 OVC070 19/19 A3022 RMK AO2 P0006 T01940189
KHKS 231953Z 15013KT 2 1/2SM RA BR FEW007 SCT050 OVC065 19/19 A3024 RMK AO2 RAB1857 SLP234 P0013 T01940189
KHKS 231945Z 13010KT 2SM RA BR FEW006 BKN065 OVC080 19/19 A3024 RMK AO2 RAB1857 P0011 T01940194
KHKS 231938Z 14010KT 2SM RA BR FEW025 BKN070 OVC095 19/19 A3024 RMK AO2 RAB1857 P0009 T01940194
KHKS 231853Z 14011KT 10SM FEW022 OVC055 22/18 A3025 RMK AO2 SLP237 T02220183
KHKS 231812Z 15010KT 10SM SCT025 OVC065 24/18 A3026 RMK AO2 T02390183
KHKS 231753Z 15009KT 10SM BKN025 BKN070 24/18 A3027 RMK AO2 SLP244 T02390183 10250 20172 58016
KHKS 231653Z 17007KT 10SM FEW019 OVC060 23/18 A3030 RMK AO2 SLP252 T02330183
KHKS 231553Z 16008KT 10SM FEW033 OVC060 22/18 A3031 RMK AO2 SLP258 T02220183
KHKS 231453Z 15011KT 10SM FEW013 SCT041 BKN055 21/18 A3032 RMK AO2 SLP259 T02060183 51017
KHKS 231353Z 14007KT 10SM CLR 19/18 A3031 RMK AO2 SLP255 T01940183
KHKS 231253Z 14006KT 7SM FEW010 SCT014 18/18 A3029 RMK AO2 SLP248 T01780178
KHKS 231230Z AUTO 16006KT 8SM FEW008 BKN014 18/18 A3028 RMK AO2 T01830178
KHKS 231211Z AUTO 17004KT 5SM BR BKN013 17/17 A3028 RMK AO2 T01720172
KHKS 231153Z AUTO 15005KT 6SM BR CLR 17/17 A3027 RMK AO2 SLP243 T01720172 10211 20172 53002
KHKS 231053Z AUTO 16005KT 8SM CLR 18/18 A3026 RMK AO2 SLP238 T01780178
KHKS 230953Z AUTO 14006KT 10SM CLR 18/18 A3025 RMK AO2 SLP236 T01830178
KHKS 230853Z AUTO 16008KT 10SM CLR 19/18 A3026 RMK AO2 SLP241 T01940183 58010
KHKS 230753Z AUTO 17008KT 10SM CLR 20/19 A3029 RMK AO2 SLP247 T02000189
KHKS 230653Z AUTO 15010KT 10SM CLR 21/19 A3029 RMK AO2 SLP249 T02060189
KHKS 230605Z AUTO 16008KT 10SM SCT022 21/19 A3029 RMK AO2 T02110189
KHKS 230553Z AUTO 16009KT 10SM BKN020 21/19 A3030 RMK AO2 SLP251 T02110189 10261 20211 403000211 51009
KHKS 230519Z AUTO 17010KT 10SM BKN016 22/19 A3030 RMK AO2 T02170194
KHKS 230453Z AUTO 17012KT 10SM CLR 22/19 A3029 RMK AO2 SLP250 T02170189
KHKS 230353Z AUTO 16010KT 10SM CLR 22/19 A3028 RMK AO2 SLP247 T02220189
KHKS 230253Z 17014G18KT 10SM CLR 23/18 A3027 RMK AO2 SLP241 T02330183 53019